sensor_id;sensor_type;location;lat;lon;timestamp;P1;durP1;ratioP1;P2;durP2;ratioP2
29908;SDS011;36247;51.952;6.146;2023-07-02T00:00:32;12.52;;;4.88;;
29908;SDS011;36247;51.952;6.146;2023-07-02T00:02:59;13.35;;;5.10;;
29908;SDS011;36247;51.952;6.146;2023-07-02T00:05:25;11.98;;;5.05;;
29908;SDS011;36247;51.952;6.146;2023-07-02T00:07:51;11.27;;;5.53;;
29908;SDS011;36247;51.952;6.146;2023-07-02T00:10:17;11.63;;;5.13;;
29908;SDS011;36247;51.952;6.146;2023-07-02T00:12:42;12.93;;;5.95;;
29908;SDS011;36247;51.952;6.146;2023-07-02T00:15:11;9.20;;;5.80;;
29908;SDS011;36247;51.952;6.146;2023-07-02T00:17:37;12.57;;;5.40;;
29908;SDS011;36247;51.952;6.146;2023-07-02T00:20:07;12.32;;;6.07;;
29908;SDS011;36247;51.952;6.146;2023-07-02T00:22:36;12.65;;;6.70;;
29908;SDS011;36247;51.952;6.146;2023-07-02T00:25:02;14.25;;;6.75;;
29908;SDS011;36247;51.952;6.146;2023-07-02T00:27:27;17.38;;;8.27;;
29908;SDS011;36247;51.952;6.146;2023-07-02T00:29:53;15.00;;;6.50;;
29908;SDS011;36247;51.952;6.146;2023-07-02T00:32:18;14.20;;;7.28;;
29908;SDS011;36247;51.952;6.146;2023-07-02T00:34:44;20.77;;;7.80;;
29908;SDS011;36247;51.952;6.146;2023-07-02T00:37:11;24.52;;;9.52;;
29908;SDS011;36247;51.952;6.146;2023-07-02T00:39:37;16.30;;;8.52;;
29908;SDS011;36247;51.952;6.146;2023-07-02T00:42:03;24.83;;;8.50;;
29908;SDS011;36247;51.952;6.146;2023-07-02T00:44:29;24.00;;;8.13;;
29908;SDS011;36247;51.952;6.146;2023-07-02T00:46:55;21.83;;;9.43;;
29908;SDS011;36247;51.952;6.146;2023-07-02T00:49:20;20.65;;;9.00;;
29908;SDS011;36247;51.952;6.146;2023-07-02T00:51:46;20.92;;;9.07;;
29908;SDS011;36247;51.952;6.146;2023-07-02T00:54:12;21.58;;;9.98;;
29908;SDS011;36247;51.952;6.146;2023-07-02T00:56:37;20.98;;;10.15;;
29908;SDS011;36247;51.952;6.146;2023-07-02T00:59:03;18.30;;;9.13;;
29908;SDS011;36247;51.952;6.146;2023-07-02T01:01:29;21.52;;;10.27;;
29908;SDS011;36247;51.952;6.146;2023-07-02T01:06:29;22.33;;;10.30;;
29908;SDS011;36247;51.952;6.146;2023-07-02T01:08:57;22.02;;;11.00;;
29908;SDS011;36247;51.952;6.146;2023-07-02T01:11:28;32.22;;;10.68;;
29908;SDS011;36247;51.952;6.146;2023-07-02T01:14:01;19.75;;;8.50;;
29908;SDS011;36247;51.952;6.146;2023-07-02T01:16:30;22.15;;;9.52;;
29908;SDS011;36247;51.952;6.146;2023-07-02T01:18:58;18.92;;;9.02;;
29908;SDS011;36247;51.952;6.146;2023-07-02T01:21:31;23.15;;;8.90;;
29908;SDS011;36247;51.952;6.146;2023-07-02T01:23:58;20.50;;;8.77;;
29908;SDS011;36247;51.952;6.146;2023-07-02T01:26:28;19.85;;;8.43;;
29908;SDS011;36247;51.952;6.146;2023-07-02T01:28:55;20.52;;;8.55;;
29908;SDS011;36247;51.952;6.146;2023-07-02T01:31:20;15.40;;;8.60;;
29908;SDS011;36247;51.952;6.146;2023-07-02T01:33:50;20.15;;;8.40;;
29908;SDS011;36247;51.952;6.146;2023-07-02T01:36:16;17.55;;;8.27;;
29908;SDS011;36247;51.952;6.146;2023-07-02T01:38:42;15.98;;;7.65;;
29908;SDS011;36247;51.952;6.146;2023-07-02T01:41:07;12.90;;;7.80;;
29908;SDS011;36247;51.952;6.146;2023-07-02T01:43:33;17.52;;;8.70;;
29908;SDS011;36247;51.952;6.146;2023-07-02T01:45:58;19.65;;;8.68;;
29908;SDS011;36247;51.952;6.146;2023-07-02T01:48:24;19.77;;;8.13;;
29908;SDS011;36247;51.952;6.146;2023-07-02T01:50:50;17.13;;;8.00;;
29908;SDS011;36247;51.952;6.146;2023-07-02T01:53:16;18.42;;;7.97;;
29908;SDS011;36247;51.952;6.146;2023-07-02T01:55:41;20.63;;;8.48;;
29908;SDS011;36247;51.952;6.146;2023-07-02T01:58:07;19.05;;;8.65;;
29908;SDS011;36247;51.952;6.146;2023-07-02T02:00:33;22.90;;;9.10;;
29908;SDS011;36247;51.952;6.146;2023-07-02T02:02:58;15.25;;;7.68;;
29908;SDS011;36247;51.952;6.146;2023-07-02T02:05:24;19.08;;;8.18;;
29908;SDS011;36247;51.952;6.146;2023-07-02T02:07:49;23.15;;;9.00;;
29908;SDS011;36247;51.952;6.146;2023-07-02T02:10:15;19.23;;;8.05;;
29908;SDS011;36247;51.952;6.146;2023-07-02T02:12:41;22.95;;;8.65;;
29908;SDS011;36247;51.952;6.146;2023-07-02T02:15:07;22.08;;;8.50;;
29908;SDS011;36247;51.952;6.146;2023-07-02T02:17:32;16.90;;;8.32;;
29908;SDS011;36247;51.952;6.146;2023-07-02T02:20:00;20.73;;;8.00;;
29908;SDS011;36247;51.952;6.146;2023-07-02T02:22:25;21.10;;;9.02;;
29908;SDS011;36247;51.952;6.146;2023-07-02T02:24:51;22.85;;;9.15;;
29908;SDS011;36247;51.952;6.146;2023-07-02T02:27:16;25.88;;;10.32;;
29908;SDS011;36247;51.952;6.146;2023-07-02T02:29:42;23.17;;;8.88;;
29908;SDS011;36247;51.952;6.146;2023-07-02T02:32:08;17.13;;;8.25;;
29908;SDS011;36247;51.952;6.146;2023-07-02T02:34:38;22.10;;;9.35;;
29908;SDS011;36247;51.952;6.146;2023-07-02T02:37:11;21.33;;;9.10;;
29908;SDS011;36247;51.952;6.146;2023-07-02T02:39:40;23.02;;;8.55;;
29908;SDS011;36247;51.952;6.146;2023-07-02T02:42:07;17.80;;;7.78;;
29908;SDS011;36247;51.952;6.146;2023-07-02T02:44:33;19.70;;;8.57;;
29908;SDS011;36247;51.952;6.146;2023-07-02T02:46:59;22.83;;;8.88;;
29908;SDS011;36247;51.952;6.146;2023-07-02T02:49:25;24.27;;;9.35;;
29908;SDS011;36247;51.952;6.146;2023-07-02T02:51:50;17.90;;;8.15;;
29908;SDS011;36247;51.952;6.146;2023-07-02T02:54:16;19.38;;;8.48;;
29908;SDS011;36247;51.952;6.146;2023-07-02T02:56:42;21.60;;;9.15;;
29908;SDS011;36247;51.952;6.146;2023-07-02T02:59:08;22.25;;;9.20;;
29908;SDS011;36247;51.952;6.146;2023-07-02T03:01:35;23.98;;;9.50;;
29908;SDS011;36247;51.952;6.146;2023-07-02T03:04:00;24.55;;;9.50;;
29908;SDS011;36247;51.952;6.146;2023-07-02T03:06:26;24.58;;;9.10;;
29908;SDS011;36247;51.952;6.146;2023-07-02T03:08:51;25.98;;;9.65;;
29908;SDS011;36247;51.952;6.146;2023-07-02T03:11:17;25.40;;;9.32;;
29908;SDS011;36247;51.952;6.146;2023-07-02T03:13:42;17.30;;;8.27;;
29908;SDS011;36247;51.952;6.146;2023-07-02T03:16:08;23.83;;;9.93;;
29908;SDS011;36247;51.952;6.146;2023-07-02T03:18:36;15.80;;;9.45;;
29908;SDS011;36247;51.952;6.146;2023-07-02T03:21:02;20.42;;;8.98;;
29908;SDS011;36247;51.952;6.146;2023-07-02T03:23:28;21.40;;;9.15;;
29908;SDS011;36247;51.952;6.146;2023-07-02T03:25:53;21.02;;;8.68;;
29908;SDS011;36247;51.952;6.146;2023-07-02T03:28:19;23.15;;;9.43;;
29908;SDS011;36247;51.952;6.146;2023-07-02T03:30:44;22.65;;;8.88;;
29908;SDS011;36247;51.952;6.146;2023-07-02T03:33:11;21.75;;;9.65;;
29908;SDS011;36247;51.952;6.146;2023-07-02T03:35:37;21.33;;;9.48;;
29908;SDS011;36247;51.952;6.146;2023-07-02T03:38:04;23.05;;;9.07;;
29908;SDS011;36247;51.952;6.146;2023-07-02T03:40:32;22.25;;;8.88;;
29908;SDS011;36247;51.952;6.146;2023-07-02T03:42:57;20.20;;;8.52;;
29908;SDS011;36247;51.952;6.146;2023-07-02T03:45:23;21.63;;;8.90;;
29908;SDS011;36247;51.952;6.146;2023-07-02T03:47:48;21.88;;;8.57;;
29908;SDS011;36247;51.952;6.146;2023-07-02T03:50:14;20.92;;;8.63;;
29908;SDS011;36247;51.952;6.146;2023-07-02T03:52:42;24.08;;;9.07;;
29908;SDS011;36247;51.952;6.146;2023-07-02T03:55:08;20.17;;;8.57;;
29908;SDS011;36247;51.952;6.146;2023-07-02T03:57:36;18.83;;;9.38;;
29908;SDS011;36247;51.952;6.146;2023-07-02T04:00:02;21.15;;;9.43;;
29908;SDS011;36247;51.952;6.146;2023-07-02T04:02:41;24.00;;;9.65;;
29908;SDS011;36247;51.952;6.146;2023-07-02T04:05:07;23.15;;;9.10;;
29908;SDS011;36247;51.952;6.146;2023-07-02T04:07:33;20.33;;;9.18;;
29908;SDS011;36247;51.952;6.146;2023-07-02T04:09:58;26.70;;;10.60;;
29908;SDS011;36247;51.952;6.146;2023-07-02T04:12:25;19.67;;;9.85;;
29908;SDS011;36247;51.952;6.146;2023-07-02T04:14:51;25.77;;;9.98;;
29908;SDS011;36247;51.952;6.146;2023-07-02T04:17:17;24.52;;;10.25;;
29908;SDS011;36247;51.952;6.146;2023-07-02T04:19:42;19.20;;;9.27;;
29908;SDS011;36247;51.952;6.146;2023-07-02T04:22:08;20.52;;;9.70;;
29908;SDS011;36247;51.952;6.146;2023-07-02T04:24:36;21.13;;;8.57;;
29908;SDS011;36247;51.952;6.146;2023-07-02T04:27:01;20.60;;;9.05;;
29908;SDS011;36247;51.952;6.146;2023-07-02T04:29:28;26.25;;;10.68;;
29908;SDS011;36247;51.952;6.146;2023-07-02T04:31:54;21.90;;;9.25;;
29908;SDS011;36247;51.952;6.146;2023-07-02T04:34:19;25.08;;;9.95;;
29908;SDS011;36247;51.952;6.146;2023-07-02T04:36:47;25.90;;;9.48;;
29908;SDS011;36247;51.952;6.146;2023-07-02T04:39:12;22.90;;;8.68;;
29908;SDS011;36247;51.952;6.146;2023-07-02T04:41:38;23.92;;;9.50;;
29908;SDS011;36247;51.952;6.146;2023-07-02T04:44:07;23.15;;;9.45;;
29908;SDS011;36247;51.952;6.146;2023-07-02T04:46:32;17.98;;;8.48;;
29908;SDS011;36247;51.952;6.146;2023-07-02T04:48:59;19.15;;;9.27;;
29908;SDS011;36247;51.952;6.146;2023-07-02T04:51:25;27.42;;;9.25;;
29908;SDS011;36247;51.952;6.146;2023-07-02T04:53:51;19.40;;;8.57;;
29908;SDS011;36247;51.952;6.146;2023-07-02T04:56:16;24.38;;;9.13;;
29908;SDS011;36247;51.952;6.146;2023-07-02T04:58:42;23.38;;;9.48;;
29908;SDS011;36247;51.952;6.146;2023-07-02T05:01:07;24.83;;;9.93;;
29908;SDS011;36247;51.952;6.146;2023-07-02T05:03:33;24.52;;;9.23;;
29908;SDS011;36247;51.952;6.146;2023-07-02T05:05:59;25.40;;;10.20;;
29908;SDS011;36247;51.952;6.146;2023-07-02T05:08:25;23.92;;;9.35;;
29908;SDS011;36247;51.952;6.146;2023-07-02T05:10:50;26.75;;;9.82;;
29908;SDS011;36247;51.952;6.146;2023-07-02T05:13:16;22.80;;;9.65;;
29908;SDS011;36247;51.952;6.146;2023-07-02T05:15:42;24.60;;;9.52;;
29908;SDS011;36247;51.952;6.146;2023-07-02T05:18:07;25.85;;;9.57;;
29908;SDS011;36247;51.952;6.146;2023-07-02T05:20:33;23.30;;;8.77;;
29908;SDS011;36247;51.952;6.146;2023-07-02T05:22:58;25.25;;;10.32;;
29908;SDS011;36247;51.952;6.146;2023-07-02T05:25:24;24.30;;;8.43;;
29908;SDS011;36247;51.952;6.146;2023-07-02T05:27:50;23.13;;;9.27;;
29908;SDS011;36247;51.952;6.146;2023-07-02T05:30:15;22.98;;;9.18;;
29908;SDS011;36247;51.952;6.146;2023-07-02T05:32:42;27.98;;;9.95;;
29908;SDS011;36247;51.952;6.146;2023-07-02T05:35:07;28.25;;;10.73;;
29908;SDS011;36247;51.952;6.146;2023-07-02T05:37:33;27.00;;;10.13;;
29908;SDS011;36247;51.952;6.146;2023-07-02T05:39:59;28.40;;;10.05;;
29908;SDS011;36247;51.952;6.146;2023-07-02T05:42:24;30.25;;;11.05;;
29908;SDS011;36247;51.952;6.146;2023-07-02T05:44:50;28.92;;;10.07;;
29908;SDS011;36247;51.952;6.146;2023-07-02T05:47:15;38.72;;;11.05;;
29908;SDS011;36247;51.952;6.146;2023-07-02T05:49:44;24.48;;;10.30;;
29908;SDS011;36247;51.952;6.146;2023-07-02T05:52:11;24.42;;;10.23;;
29908;SDS011;36247;51.952;6.146;2023-07-02T05:54:42;24.20;;;9.63;;
29908;SDS011;36247;51.952;6.146;2023-07-02T05:57:07;29.67;;;10.18;;
29908;SDS011;36247;51.952;6.146;2023-07-02T05:59:33;27.88;;;11.15;;
29908;SDS011;36247;51.952;6.146;2023-07-02T06:01:59;29.48;;;10.98;;
29908;SDS011;36247;51.952;6.146;2023-07-02T06:04:25;29.70;;;9.77;;
29908;SDS011;36247;51.952;6.146;2023-07-02T06:06:50;29.77;;;10.18;;
29908;SDS011;36247;51.952;6.146;2023-07-02T06:09:16;34.88;;;12.48;;
29908;SDS011;36247;51.952;6.146;2023-07-02T06:11:42;31.00;;;10.40;;
29908;SDS011;36247;51.952;6.146;2023-07-02T06:14:07;27.85;;;9.35;;
29908;SDS011;36247;51.952;6.146;2023-07-02T06:16:33;33.90;;;10.88;;
29908;SDS011;36247;51.952;6.146;2023-07-02T06:18:59;25.77;;;9.52;;
29908;SDS011;36247;51.952;6.146;2023-07-02T06:21:24;27.85;;;9.88;;
29908;SDS011;36247;51.952;6.146;2023-07-02T06:23:54;30.35;;;9.90;;
29908;SDS011;36247;51.952;6.146;2023-07-02T06:26:21;36.33;;;11.00;;
29908;SDS011;36247;51.952;6.146;2023-07-02T06:28:46;18.95;;;9.27;;
29908;SDS011;36247;51.952;6.146;2023-07-02T06:31:12;23.10;;;9.52;;
29908;SDS011;36247;51.952;6.146;2023-07-02T06:33:38;22.15;;;9.00;;
29908;SDS011;36247;51.952;6.146;2023-07-02T06:36:07;27.48;;;9.68;;
29908;SDS011;36247;51.952;6.146;2023-07-02T06:38:33;26.83;;;8.95;;
29908;SDS011;36247;51.952;6.146;2023-07-02T06:40:58;27.05;;;8.80;;
29908;SDS011;36247;51.952;6.146;2023-07-02T06:43:24;22.90;;;9.07;;
29908;SDS011;36247;51.952;6.146;2023-07-02T06:45:49;20.70;;;9.32;;
29908;SDS011;36247;51.952;6.146;2023-07-02T06:48:15;28.50;;;9.15;;
29908;SDS011;36247;51.952;6.146;2023-07-02T06:50:46;29.92;;;9.43;;
29908;SDS011;36247;51.952;6.146;2023-07-02T06:53:12;22.77;;;8.55;;
29908;SDS011;36247;51.952;6.146;2023-07-02T06:55:38;24.67;;;8.18;;
29908;SDS011;36247;51.952;6.146;2023-07-02T06:58:07;19.75;;;8.35;;
29908;SDS011;36247;51.952;6.146;2023-07-02T07:00:33;22.90;;;8.43;;
29908;SDS011;36247;51.952;6.146;2023-07-02T07:03:01;24.23;;;7.70;;
29908;SDS011;36247;51.952;6.146;2023-07-02T07:05:29;23.85;;;9.23;;
29908;SDS011;36247;51.952;6.146;2023-07-02T07:07:57;20.27;;;8.13;;
29908;SDS011;36247;51.952;6.146;2023-07-02T07:10:25;24.52;;;8.02;;
29908;SDS011;36247;51.952;6.146;2023-07-02T07:12:51;25.73;;;8.63;;
29908;SDS011;36247;51.952;6.146;2023-07-02T07:15:17;24.27;;;8.98;;
29908;SDS011;36247;51.952;6.146;2023-07-02T07:17:42;23.02;;;8.02;;
29908;SDS011;36247;51.952;6.146;2023-07-02T07:20:08;17.70;;;7.63;;
29908;SDS011;36247;51.952;6.146;2023-07-02T07:22:38;19.42;;;8.23;;
29908;SDS011;36247;51.952;6.146;2023-07-02T07:25:03;22.15;;;7.25;;
29908;SDS011;36247;51.952;6.146;2023-07-02T07:27:29;19.13;;;7.57;;
29908;SDS011;36247;51.952;6.146;2023-07-02T07:29:55;22.60;;;8.50;;
29908;SDS011;36247;51.952;6.146;2023-07-02T07:32:20;23.20;;;7.85;;
29908;SDS011;36247;51.952;6.146;2023-07-02T07:34:46;17.92;;;7.53;;
29908;SDS011;36247;51.952;6.146;2023-07-02T07:37:12;22.05;;;8.23;;
29908;SDS011;36247;51.952;6.146;2023-07-02T07:39:38;19.73;;;8.05;;
29908;SDS011;36247;51.952;6.146;2023-07-02T07:42:03;24.63;;;8.07;;
29908;SDS011;36247;51.952;6.146;2023-07-02T07:44:29;17.73;;;7.82;;
29908;SDS011;36247;51.952;6.146;2023-07-02T07:46:56;21.30;;;8.82;;
29908;SDS011;36247;51.952;6.146;2023-07-02T07:49:22;16.52;;;8.10;;
29908;SDS011;36247;51.952;6.146;2023-07-02T07:51:47;23.02;;;8.02;;
29908;SDS011;36247;51.952;6.146;2023-07-02T07:54:14;19.60;;;7.47;;
29908;SDS011;36247;51.952;6.146;2023-07-02T07:56:42;16.42;;;7.43;;
29908;SDS011;36247;51.952;6.146;2023-07-02T07:59:08;18.20;;;7.78;;
29908;SDS011;36247;51.952;6.146;2023-07-02T08:01:38;23.60;;;7.80;;
29908;SDS011;36247;51.952;6.146;2023-07-02T08:04:12;20.83;;;7.80;;
29908;SDS011;36247;51.952;6.146;2023-07-02T08:06:38;17.00;;;7.50;;
29908;SDS011;36247;51.952;6.146;2023-07-02T08:09:03;19.33;;;7.93;;
29908;SDS011;36247;51.952;6.146;2023-07-02T08:11:29;18.02;;;7.15;;
29908;SDS011;36247;51.952;6.146;2023-07-02T08:13:54;23.08;;;8.60;;
29908;SDS011;36247;51.952;6.146;2023-07-02T08:16:20;20.23;;;7.70;;
29908;SDS011;36247;51.952;6.146;2023-07-02T08:18:46;14.70;;;7.22;;
29908;SDS011;36247;51.952;6.146;2023-07-02T08:21:11;19.92;;;7.75;;
29908;SDS011;36247;51.952;6.146;2023-07-02T08:23:37;19.52;;;6.97;;
29908;SDS011;36247;51.952;6.146;2023-07-02T08:26:03;20.40;;;8.07;;
29908;SDS011;36247;51.952;6.146;2023-07-02T08:28:28;15.25;;;7.30;;
29908;SDS011;36247;51.952;6.146;2023-07-02T08:30:54;22.92;;;8.00;;
29908;SDS011;36247;51.952;6.146;2023-07-02T08:33:20;15.38;;;6.35;;
29908;SDS011;36247;51.952;6.146;2023-07-02T08:35:46;15.73;;;7.25;;
29908;SDS011;36247;51.952;6.146;2023-07-02T08:38:12;17.05;;;6.40;;
29908;SDS011;36247;51.952;6.146;2023-07-02T08:40:38;15.18;;;6.95;;
29908;SDS011;36247;51.952;6.146;2023-07-02T08:43:03;15.60;;;6.32;;
29908;SDS011;36247;51.952;6.146;2023-07-02T08:45:29;17.80;;;6.60;;
29908;SDS011;36247;51.952;6.146;2023-07-02T08:47:55;15.57;;;6.30;;
29908;SDS011;36247;51.952;6.146;2023-07-02T08:50:22;16.13;;;6.80;;
29908;SDS011;36247;51.952;6.146;2023-07-02T08:52:48;15.13;;;7.32;;
29908;SDS011;36247;51.952;6.146;2023-07-02T08:55:14;18.90;;;8.00;;
29908;SDS011;36247;51.952;6.146;2023-07-02T08:58:03;16.83;;;6.25;;
29908;SDS011;36247;51.952;6.146;2023-07-02T09:00:27;17.08;;;6.47;;
29908;SDS011;36247;51.952;6.146;2023-07-02T09:02:56;16.20;;;6.40;;
29908;SDS011;36247;51.952;6.146;2023-07-02T09:05:21;16.90;;;6.97;;
29908;SDS011;36247;51.952;6.146;2023-07-02T09:07:48;17.63;;;7.40;;
29908;SDS011;36247;51.952;6.146;2023-07-02T09:10:27;14.30;;;6.55;;
29908;SDS011;36247;51.952;6.146;2023-07-02T09:13:07;28.58;;;8.38;;
29908;SDS011;36247;51.952;6.146;2023-07-02T09:15:38;16.55;;;6.53;;
29908;SDS011;36247;51.952;6.146;2023-07-02T09:18:17;18.60;;;7.82;;
29908;SDS011;36247;51.952;6.146;2023-07-02T09:20:44;15.57;;;6.70;;
29908;SDS011;36247;51.952;6.146;2023-07-02T09:23:12;27.73;;;7.97;;
29908;SDS011;36247;51.952;6.146;2023-07-02T09:25:38;13.25;;;6.15;;
29908;SDS011;36247;51.952;6.146;2023-07-02T09:28:14;13.70;;;6.05;;
29908;SDS011;36247;51.952;6.146;2023-07-02T09:30:48;14.77;;;5.85;;
29908;SDS011;36247;51.952;6.146;2023-07-02T09:33:15;12.82;;;5.75;;
29908;SDS011;36247;51.952;6.146;2023-07-02T09:35:43;13.13;;;6.05;;
29908;SDS011;36247;51.952;6.146;2023-07-02T09:38:12;12.48;;;6.30;;
29908;SDS011;36247;51.952;6.146;2023-07-02T09:40:42;14.48;;;6.03;;
29908;SDS011;36247;51.952;6.146;2023-07-02T09:43:13;15.68;;;6.30;;
29908;SDS011;36247;51.952;6.146;2023-07-02T09:45:44;16.48;;;5.55;;
29908;SDS011;36247;51.952;6.146;2023-07-02T09:48:13;14.55;;;6.43;;
29908;SDS011;36247;51.952;6.146;2023-07-02T09:50:45;13.15;;;5.93;;
29908;SDS011;36247;51.952;6.146;2023-07-02T09:53:14;14.60;;;6.63;;
29908;SDS011;36247;51.952;6.146;2023-07-02T09:55:43;13.57;;;6.00;;
29908;SDS011;36247;51.952;6.146;2023-07-02T09:58:11;13.70;;;5.82;;
29908;SDS011;36247;51.952;6.146;2023-07-02T10:00:38;13.52;;;6.43;;
29908;SDS011;36247;51.952;6.146;2023-07-02T10:03:08;14.95;;;6.55;;
29908;SDS011;36247;51.952;6.146;2023-07-02T10:05:33;11.57;;;5.70;;
29908;SDS011;36247;51.952;6.146;2023-07-02T10:08:11;11.02;;;5.53;;
29908;SDS011;36247;51.952;6.146;2023-07-02T10:10:43;13.98;;;6.18;;
29908;SDS011;36247;51.952;6.146;2023-07-02T10:13:25;17.38;;;6.20;;
29908;SDS011;36247;51.952;6.146;2023-07-02T10:16:00;13.38;;;5.55;;
29908;SDS011;36247;51.952;6.146;2023-07-02T10:18:29;12.60;;;5.70;;
29908;SDS011;36247;51.952;6.146;2023-07-02T10:20:54;10.98;;;5.53;;
29908;SDS011;36247;51.952;6.146;2023-07-02T10:23:20;12.70;;;6.63;;
29908;SDS011;36247;51.952;6.146;2023-07-02T10:25:45;12.38;;;5.78;;
29908;SDS011;36247;51.952;6.146;2023-07-02T10:28:16;14.05;;;5.78;;
29908;SDS011;36247;51.952;6.146;2023-07-02T10:30:47;11.90;;;5.72;;
29908;SDS011;36247;51.952;6.146;2023-07-02T10:33:13;7.50;;;4.90;;
29908;SDS011;36247;51.952;6.146;2023-07-02T10:35:47;12.75;;;6.05;;
29908;SDS011;36247;51.952;6.146;2023-07-02T10:38:18;11.10;;;5.57;;
29908;SDS011;36247;51.952;6.146;2023-07-02T10:40:44;9.93;;;5.18;;
29908;SDS011;36247;51.952;6.146;2023-07-02T10:43:11;11.23;;;5.22;;
29908;SDS011;36247;51.952;6.146;2023-07-02T10:45:38;15.00;;;6.38;;
29908;SDS011;36247;51.952;6.146;2023-07-02T10:48:08;10.05;;;5.30;;
29908;SDS011;36247;51.952;6.146;2023-07-02T10:50:38;11.60;;;5.30;;
29908;SDS011;36247;51.952;6.146;2023-07-02T10:53:19;12.98;;;5.03;;
29908;SDS011;36247;51.952;6.146;2023-07-02T10:55:52;12.25;;;5.20;;
29908;SDS011;36247;51.952;6.146;2023-07-02T10:58:20;10.07;;;4.85;;
29908;SDS011;36247;51.952;6.146;2023-07-02T11:00:46;17.67;;;5.88;;
29908;SDS011;36247;51.952;6.146;2023-07-02T11:03:19;13.30;;;6.05;;
29908;SDS011;36247;51.952;6.146;2023-07-02T11:05:46;11.60;;;5.90;;
29908;SDS011;36247;51.952;6.146;2023-07-02T11:08:13;15.05;;;5.30;;
29908;SDS011;36247;51.952;6.146;2023-07-02T11:10:42;12.13;;;5.70;;
29908;SDS011;36247;51.952;6.146;2023-07-02T11:13:18;11.82;;;5.50;;
29908;SDS011;36247;51.952;6.146;2023-07-02T11:15:44;12.48;;;5.20;;
29908;SDS011;36247;51.952;6.146;2023-07-02T11:18:17;11.90;;;5.40;;
29908;SDS011;36247;51.952;6.146;2023-07-02T11:20:46;10.07;;;5.20;;
29908;SDS011;36247;51.952;6.146;2023-07-02T11:23:19;11.68;;;5.53;;
29908;SDS011;36247;51.952;6.146;2023-07-02T11:25:59;14.60;;;6.18;;
29908;SDS011;36247;51.952;6.146;2023-07-02T11:28:28;9.70;;;5.22;;
29908;SDS011;36247;51.952;6.146;2023-07-02T11:30:55;12.43;;;5.05;;
29908;SDS011;36247;51.952;6.146;2023-07-02T11:33:32;11.32;;;5.40;;
29908;SDS011;36247;51.952;6.146;2023-07-02T11:35:59;11.65;;;5.75;;
29908;SDS011;36247;51.952;6.146;2023-07-02T11:38:24;10.10;;;5.30;;
29908;SDS011;36247;51.952;6.146;2023-07-02T11:40:50;10.70;;;4.72;;
29908;SDS011;36247;51.952;6.146;2023-07-02T11:43:16;11.10;;;5.10;;
29908;SDS011;36247;51.952;6.146;2023-07-02T11:45:43;12.77;;;5.40;;
29908;SDS011;36247;51.952;6.146;2023-07-02T11:48:10;12.98;;;4.95;;
29908;SDS011;36247;51.952;6.146;2023-07-02T11:50:38;11.48;;;5.55;;
29908;SDS011;36247;51.952;6.146;2023-07-02T11:53:03;8.13;;;5.38;;
29908;SDS011;36247;51.952;6.146;2023-07-02T11:55:29;10.13;;;5.15;;
29908;SDS011;36247;51.952;6.146;2023-07-02T11:57:55;10.88;;;5.53;;
29908;SDS011;36247;51.952;6.146;2023-07-02T12:00:21;11.82;;;4.68;;
29908;SDS011;36247;51.952;6.146;2023-07-02T12:02:47;10.77;;;5.25;;
29908;SDS011;36247;51.952;6.146;2023-07-02T12:05:14;12.25;;;4.88;;
29908;SDS011;36247;51.952;6.146;2023-07-02T12:07:41;10.38;;;4.63;;
29908;SDS011;36247;51.952;6.146;2023-07-02T12:10:08;9.75;;;4.72;;
29908;SDS011;36247;51.952;6.146;2023-07-02T12:12:33;8.75;;;4.65;;
29908;SDS011;36247;51.952;6.146;2023-07-02T12:14:59;12.30;;;5.35;;
29908;SDS011;36247;51.952;6.146;2023-07-02T12:17:24;9.77;;;4.80;;
29908;SDS011;36247;51.952;6.146;2023-07-02T12:19:50;9.75;;;4.45;;
29908;SDS011;36247;51.952;6.146;2023-07-02T12:22:16;8.60;;;4.38;;
29908;SDS011;36247;51.952;6.146;2023-07-02T12:24:43;10.13;;;4.55;;
29908;SDS011;36247;51.952;6.146;2023-07-02T12:27:11;9.02;;;4.68;;
29908;SDS011;36247;51.952;6.146;2023-07-02T12:29:38;10.52;;;4.85;;
29908;SDS011;36247;51.952;6.146;2023-07-02T12:32:08;9.48;;;4.53;;
29908;SDS011;36247;51.952;6.146;2023-07-02T12:34:37;11.02;;;4.90;;
29908;SDS011;36247;51.952;6.146;2023-07-02T12:37:03;7.57;;;4.90;;
29908;SDS011;36247;51.952;6.146;2023-07-02T12:39:29;11.55;;;4.88;;
29908;SDS011;36247;51.952;6.146;2023-07-02T12:41:55;7.88;;;4.28;;
29908;SDS011;36247;51.952;6.146;2023-07-02T12:44:20;11.45;;;4.68;;
29908;SDS011;36247;51.952;6.146;2023-07-02T12:46:46;8.70;;;4.50;;
29908;SDS011;36247;51.952;6.146;2023-07-02T12:49:12;11.50;;;4.47;;
29908;SDS011;36247;51.952;6.146;2023-07-02T12:51:38;7.22;;;4.18;;
29908;SDS011;36247;51.952;6.146;2023-07-02T12:54:04;9.50;;;5.18;;
29908;SDS011;36247;51.952;6.146;2023-07-02T12:56:29;9.77;;;4.40;;
29908;SDS011;36247;51.952;6.146;2023-07-02T12:58:55;11.52;;;4.85;;
29908;SDS011;36247;51.952;6.146;2023-07-02T13:01:20;6.30;;;4.28;;
29908;SDS011;36247;51.952;6.146;2023-07-02T13:03:46;7.35;;;4.85;;
29908;SDS011;36247;51.952;6.146;2023-07-02T13:06:13;8.55;;;4.80;;
29908;SDS011;36247;51.952;6.146;2023-07-02T13:08:43;11.13;;;4.65;;
29908;SDS011;36247;51.952;6.146;2023-07-02T13:11:08;10.38;;;4.82;;
29908;SDS011;36247;51.952;6.146;2023-07-02T13:13:38;9.93;;;4.20;;
29908;SDS011;36247;51.952;6.146;2023-07-02T13:16:03;7.55;;;3.83;;
29908;SDS011;36247;51.952;6.146;2023-07-02T13:18:29;8.15;;;4.75;;
29908;SDS011;36247;51.952;6.146;2023-07-02T13:20:55;7.53;;;4.00;;
29908;SDS011;36247;51.952;6.146;2023-07-02T13:23:21;7.53;;;4.50;;
29908;SDS011;36247;51.952;6.146;2023-07-02T13:25:46;9.52;;;4.80;;
29908;SDS011;36247;51.952;6.146;2023-07-02T13:28:13;9.55;;;4.07;;
29908;SDS011;36247;51.952;6.146;2023-07-02T13:30:38;6.38;;;4.20;;
29908;SDS011;36247;51.952;6.146;2023-07-02T13:33:07;7.30;;;4.68;;
29908;SDS011;36247;51.952;6.146;2023-07-02T13:35:33;6.82;;;4.03;;
29908;SDS011;36247;51.952;6.146;2023-07-02T13:37:58;8.85;;;4.22;;
29908;SDS011;36247;51.952;6.146;2023-07-02T13:40:29;8.48;;;4.30;;
29908;SDS011;36247;51.952;6.146;2023-07-02T13:42:54;8.40;;;4.53;;
29908;SDS011;36247;51.952;6.146;2023-07-02T13:45:24;9.88;;;4.45;;
29908;SDS011;36247;51.952;6.146;2023-07-02T13:47:49;7.35;;;4.05;;
29908;SDS011;36247;51.952;6.146;2023-07-02T13:50:15;9.63;;;4.45;;
29908;SDS011;36247;51.952;6.146;2023-07-02T13:52:42;9.68;;;4.55;;
29908;SDS011;36247;51.952;6.146;2023-07-02T13:55:08;6.13;;;4.22;;
29908;SDS011;36247;51.952;6.146;2023-07-02T13:57:40;10.40;;;5.07;;
29908;SDS011;36247;51.952;6.146;2023-07-02T14:00:07;8.52;;;4.63;;
29908;SDS011;36247;51.952;6.146;2023-07-02T14:02:37;8.00;;;4.57;;
29908;SDS011;36247;51.952;6.146;2023-07-02T14:05:03;13.35;;;4.88;;
29908;SDS011;36247;51.952;6.146;2023-07-02T14:07:28;10.23;;;4.60;;
29908;SDS011;36247;51.952;6.146;2023-07-02T14:09:56;9.18;;;4.75;;
29908;SDS011;36247;51.952;6.146;2023-07-02T14:12:22;9.27;;;4.55;;
29908;SDS011;36247;51.952;6.146;2023-07-02T14:14:48;10.43;;;4.63;;
29908;SDS011;36247;51.952;6.146;2023-07-02T14:17:13;9.63;;;4.97;;
29908;SDS011;36247;51.952;6.146;2023-07-02T14:19:43;9.18;;;4.57;;
29908;SDS011;36247;51.952;6.146;2023-07-02T14:22:12;8.90;;;4.55;;
29908;SDS011;36247;51.952;6.146;2023-07-02T14:24:38;10.48;;;4.85;;
29908;SDS011;36247;51.952;6.146;2023-07-02T14:27:03;9.07;;;5.47;;
29908;SDS011;36247;51.952;6.146;2023-07-02T14:29:29;8.80;;;4.18;;
29908;SDS011;36247;51.952;6.146;2023-07-02T14:31:55;10.05;;;4.20;;
29908;SDS011;36247;51.952;6.146;2023-07-02T14:34:20;11.98;;;4.93;;
29908;SDS011;36247;51.952;6.146;2023-07-02T14:36:46;9.00;;;4.78;;